sensor_id;sensor_type;location;lat;lon;timestamp;pressure;altitude;pressure_sealevel;temperature;humidity
6150;BME280;3106;42.670;23.318;2023-09-19T00:01:33;94828.34;;;17.44;84.20
6150;BME280;3106;42.670;23.318;2023-09-19T00:04:01;94832.19;;;17.46;84.32
6150;BME280;3106;42.670;23.318;2023-09-19T00:06:28;94831.81;;;17.44;84.36
6150;BME280;3106;42.670;23.318;2023-09-19T00:08:57;94829.84;;;17.41;84.39
6150;BME280;3106;42.670;23.318;2023-09-19T00:11:25;94829.09;;;17.41;84.40
6150;BME280;3106;42.670;23.318;2023-09-19T00:13:52;94830.19;;;17.33;85.16
6150;BME280;3106;42.670;23.318;2023-09-19T00:16:20;94830.19;;;17.33;85.33
6150;BME280;3106;42.670;23.318;2023-09-19T00:18:47;94825.41;;;17.23;85.61
6150;BME280;3106;42.670;23.318;2023-09-19T00:21:15;94827.38;;;17.26;86.09
6150;BME280;3106;42.670;23.318;2023-09-19T00:23:42;94831.22;;;17.25;86.01
6150;BME280;3106;42.670;23.318;2023-09-19T00:26:09;94821.16;;;17.22;86.39
6150;BME280;3106;42.670;23.318;2023-09-19T00:28:36;94819.66;;;17.24;86.55
6150;BME280;3106;42.670;23.318;2023-09-19T00:31:03;94809.94;;;17.16;87.06
6150;BME280;3106;42.670;23.318;2023-09-19T00:33:30;94817.31;;;17.19;87.09
6150;BME280;3106;42.670;23.318;2023-09-19T00:35:57;94819.25;;;17.22;87.18
6150;BME280;3106;42.670;23.318;2023-09-19T00:38:26;94804.84;;;17.11;87.27
6150;BME280;3106;42.670;23.318;2023-09-19T00:40:54;94806.03;;;17.14;87.49
6150;BME280;3106;42.670;23.318;2023-09-19T00:43:22;94803.31;;;17.10;88.08
6150;BME280;3106;42.670;23.318;2023-09-19T00:45:51;94790.09;;;16.98;88.16
6150;BME280;3106;42.670;23.318;2023-09-19T00:48:19;94802.88;;;17.05;88.70
6150;BME280;3106;42.670;23.318;2023-09-19T00:50:47;94807.84;;;16.96;89.04
6150;BME280;3106;42.670;23.318;2023-09-19T00:53:18;94812.03;;;16.93;89.68
6150;BME280;3106;42.670;23.318;2023-09-19T00:55:48;94817.81;;;16.92;89.79
6150;BME280;3106;42.670;23.318;2023-09-19T00:58:16;94814.69;;;16.90;90.24
6150;BME280;3106;42.670;23.318;2023-09-19T01:00:44;94812.41;;;16.92;90.20
6150;BME280;3106;42.670;23.318;2023-09-19T01:03:11;94805.03;;;16.85;90.60
6150;BME280;3106;42.670;23.318;2023-09-19T01:05:38;94808.41;;;16.79;91.19
6150;BME280;3106;42.670;23.318;2023-09-19T01:08:06;94805.31;;;16.77;90.93
6150;BME280;3106;42.670;23.318;2023-09-19T01:10:33;94815.78;;;16.82;90.88
6150;BME280;3106;42.670;23.318;2023-09-19T01:13:07;94810.31;;;16.75;91.57
6150;BME280;3106;42.670;23.318;2023-09-19T01:15:45;94804.47;;;16.69;91.77
6150;BME280;3106;42.670;23.318;2023-09-19T01:18:23;94809.09;;;16.69;92.15
6150;BME280;3106;42.670;23.318;2023-09-19T01:20:59;94812.91;;;16.65;92.65
6150;BME280;3106;42.670;23.318;2023-09-19T01:23:43;94822.16;;;16.64;92.79
6150;BME280;3106;42.670;23.318;2023-09-19T01:26:30;94822.84;;;16.57;93.15
6150;BME280;3106;42.670;23.318;2023-09-19T01:29:23;94819.72;;;16.55;93.53
6150;BME280;3106;42.670;23.318;2023-09-19T01:32:01;94827.47;;;16.57;93.81
6150;BME280;3106;42.670;23.318;2023-09-19T01:34:43;94806.63;;;16.54;93.84
6150;BME280;3106;42.670;23.318;2023-09-19T01:37:11;94803.13;;;16.50;93.92
6150;BME280;3106;42.670;23.318;2023-09-19T01:39:37;94800.81;;;16.52;94.13
6150;BME280;3106;42.670;23.318;2023-09-19T01:42:11;94807.72;;;16.49;94.41
6150;BME280;3106;42.670;23.318;2023-09-19T01:44:49;94803.47;;;16.48;94.46
6150;BME280;3106;42.670;23.318;2023-09-19T01:47:24;94808.09;;;16.48;94.85
6150;BME280;3106;42.670;23.318;2023-09-19T01:49:58;94808.09;;;16.48;94.83
6150;BME280;3106;42.670;23.318;2023-09-19T01:52:31;94808.88;;;16.48;95.01
6150;BME280;3106;42.670;23.318;2023-09-19T01:55:08;94805.03;;;16.49;95.03
6150;BME280;3106;42.670;23.318;2023-09-19T01:57:41;94797.91;;;16.34;95.05
6150;BME280;3106;42.670;23.318;2023-09-19T02:00:12;94812.63;;;16.40;95.40
6150;BME280;3106;42.670;23.318;2023-09-19T02:02:45;94821.53;;;16.41;95.58
6150;BME280;3106;42.670;23.318;2023-09-19T02:05:13;94819.59;;;16.41;95.62
6150;BME280;3106;42.670;23.318;2023-09-19T02:07:40;94815.66;;;16.35;95.68
6150;BME280;3106;42.670;23.318;2023-09-19T02:10:07;94814.13;;;16.34;96.15
6150;BME280;3106;42.670;23.318;2023-09-19T02:12:35;94800.47;;;16.24;96.45
6150;BME280;3106;42.670;23.318;2023-09-19T02:15:04;94822.84;;;16.28;96.74
6150;BME280;3106;42.670;23.318;2023-09-19T02:17:32;94817.09;;;16.29;96.98
6150;BME280;3106;42.670;23.318;2023-09-19T02:20:00;94815.59;;;16.32;96.95
6150;BME280;3106;42.670;23.318;2023-09-19T02:22:29;94798.84;;;16.19;96.81
6150;BME280;3106;42.670;23.318;2023-09-19T02:24:56;94823.97;;;16.23;97.10
6150;BME280;3106;42.670;23.318;2023-09-19T02:27:26;94815.44;;;16.18;97.35
6150;BME280;3106;42.670;23.318;2023-09-19T02:29:52;94808.41;;;16.13;97.51
6150;BME280;3106;42.670;23.318;2023-09-19T02:32:19;94805.31;;;16.11;97.96
6150;BME280;3106;42.670;23.318;2023-09-19T02:34:46;94799.09;;;16.07;97.86
6150;BME280;3106;42.670;23.318;2023-09-19T02:37:15;94804.81;;;16.02;97.91
6150;BME280;3106;42.670;23.318;2023-09-19T02:39:44;94792.06;;;15.99;98.32
6150;BME280;3106;42.670;23.318;2023-09-19T02:42:11;94790.94;;;16.00;98.44
6150;BME280;3106;42.670;23.318;2023-09-19T02:44:38;94788.19;;;15.97;98.40
6150;BME280;3106;42.670;23.318;2023-09-19T02:47:05;94779.66;;;15.91;98.99
6150;BME280;3106;42.670;23.318;2023-09-19T02:49:32;94776.53;;;15.89;98.98
6150;BME280;3106;42.670;23.318;2023-09-19T02:52:00;94777.78;;;15.95;98.70
6150;BME280;3106;42.670;23.318;2023-09-19T02:54:30;94779.66;;;15.91;98.38
6150;BME280;3106;42.670;23.318;2023-09-19T02:56:57;94781.94;;;15.89;98.75
6150;BME280;3106;42.670;23.318;2023-09-19T02:59:24;94784.16;;;15.84;98.74
6150;BME280;3106;42.670;23.318;2023-09-19T03:01:51;94776.44;;;15.82;99.07
6150;BME280;3106;42.670;23.318;2023-09-19T03:04:20;94782.09;;;15.74;99.28
6150;BME280;3106;42.670;23.318;2023-09-19T03:06:47;94767.09;;;15.76;99.37
6150;BME280;3106;42.670;23.318;2023-09-19T03:09:16;94771.75;;;15.76;99.44
6150;BME280;3106;42.670;23.318;2023-09-19T03:11:46;94770.22;;;15.78;99.27
6150;BME280;3106;42.670;23.318;2023-09-19T03:14:13;94764.47;;;15.80;99.12
6150;BME280;3106;42.670;23.318;2023-09-19T03:16:41;94764.09;;;15.81;98.98
6150;BME280;3106;42.670;23.318;2023-09-19T03:19:09;94768.00;;;15.84;98.89
6150;BME280;3106;42.670;23.318;2023-09-19T03:21:37;94764.88;;;15.82;99.18
6150;BME280;3106;42.670;23.318;2023-09-19T03:24:04;94759.06;;;15.80;99.02
6150;BME280;3106;42.670;23.318;2023-09-19T03:26:32;94768.34;;;15.82;99.15
6150;BME280;3106;42.670;23.318;2023-09-19T03:29:03;94762.59;;;15.84;99.25
6150;BME280;3106;42.670;23.318;2023-09-19T03:31:33;94744.38;;;15.74;99.42
6150;BME280;3106;42.670;23.318;2023-09-19T03:34:02;94764.91;;;15.85;99.21
6150;BME280;3106;42.670;23.318;2023-09-19T03:36:30;94770.00;;;15.90;99.09
6150;BME280;3106;42.670;23.318;2023-09-19T03:38:57;94769.59;;;15.88;99.13
6150;BME280;3106;42.670;23.318;2023-09-19T03:41:23;94771.03;;;15.82;99.47
6150;BME280;3106;42.670;23.318;2023-09-19T03:43:50;94774.88;;;15.81;99.82
6150;BME280;3106;42.670;23.318;2023-09-19T03:46:18;94778.34;;;15.82;99.59
6150;BME280;3106;42.670;23.318;2023-09-19T03:48:45;94775.19;;;15.76;99.69
6150;BME280;3106;42.670;23.318;2023-09-19T03:51:12;94787.22;;;15.82;99.71
6150;BME280;3106;42.670;23.318;2023-09-19T03:53:39;94783.69;;;15.78;99.79
6150;BME280;3106;42.670;23.318;2023-09-19T03:56:06;94788.25;;;15.74;100.00
6150;BME280;3106;42.670;23.318;2023-09-19T03:58:33;94785.31;;;15.57;100.00
6150;BME280;3106;42.670;23.318;2023-09-19T04:01:04;94774.03;;;15.48;100.00
6150;BME280;3106;42.670;23.318;2023-09-19T04:03:33;94791.91;;;15.59;100.00
6150;BME280;3106;42.670;23.318;2023-09-19T04:06:11;94780.81;;;15.64;100.00
6150;BME280;3106;42.670;23.318;2023-09-19T04:08:38;94782.38;;;15.65;100.00
6150;BME280;3106;42.670;23.318;2023-09-19T04:11:05;94795.06;;;15.65;100.00
6150;BME280;3106;42.670;23.318;2023-09-19T04:13:32;94801.72;;;15.71;100.00
6150;BME280;3106;42.670;23.318;2023-09-19T04:15:59;94792.91;;;15.74;100.00
6150;BME280;3106;42.670;23.318;2023-09-19T04:18:26;94801.34;;;15.72;100.00
6150;BME280;3106;42.670;23.318;2023-09-19T04:20:54;94811.06;;;15.80;100.00
6150;BME280;3106;42.670;23.318;2023-09-19T04:23:21;94787.91;;;15.76;100.00
6150;BME280;3106;42.670;23.318;2023-09-19T04:25:48;94804.13;;;15.79;100.00
6150;BME280;3106;42.670;23.318;2023-09-19T04:28:16;94796.50;;;15.85;100.00
6150;BME280;3106;42.670;23.318;2023-09-19T04:30:43;94792.41;;;15.94;99.90
6150;BME280;3106;42.670;23.318;2023-09-19T04:33:09;94787.34;;;15.93;99.63
6150;BME280;3106;42.670;23.318;2023-09-19T04:35:37;94789.69;;;15.94;99.20
6150;BME280;3106;42.670;23.318;2023-09-19T04:38:05;94791.75;;;16.04;98.99
6150;BME280;3106;42.670;23.318;2023-09-19T04:40:32;94793.34;;;16.09;98.90
6150;BME280;3106;42.670;23.318;2023-09-19T04:42:59;94787.72;;;16.21;98.70
6150;BME280;3106;42.670;23.318;2023-09-19T04:45:27;94782.03;;;16.29;98.40
6150;BME280;3106;42.670;23.318;2023-09-19T04:47:54;94787.16;;;16.38;97.64
6150;BME280;3106;42.670;23.318;2023-09-19T04:50:22;94784.16;;;16.46;97.53
6150;BME280;3106;42.670;23.318;2023-09-19T04:52:53;94788.88;;;16.56;97.36
6150;BME280;3106;42.670;23.318;2023-09-19T04:55:21;94787.03;;;16.60;97.00
6150;BME280;3106;42.670;23.318;2023-09-19T04:57:49;94785.91;;;16.65;96.28
6150;BME280;3106;42.670;23.318;2023-09-19T05:00:19;94772.09;;;16.73;96.16
6150;BME280;3106;42.670;23.318;2023-09-19T05:02:49;94776.06;;;16.82;95.66
6150;BME280;3106;42.670;23.318;2023-09-19T05:05:16;94770.72;;;16.93;95.05
6150;BME280;3106;42.670;23.318;2023-09-19T05:07:44;94773.47;;;17.40;93.38
6150;BME280;3106;42.670;23.318;2023-09-19T05:10:11;94783.84;;;17.95;91.48
6150;BME280;3106;42.670;23.318;2023-09-19T05:12:40;94791.13;;;18.76;88.23
6150;BME280;3106;42.670;23.318;2023-09-19T05:15:09;94792.38;;;19.49;82.67
6150;BME280;3106;42.670;23.318;2023-09-19T05:17:36;94774.91;;;19.74;79.12
6150;BME280;3106;42.670;23.318;2023-09-19T05:20:04;94789.06;;;20.41;77.10
6150;BME280;3106;42.670;23.318;2023-09-19T05:22:40;94783.44;;;20.83;74.01
6150;BME280;3106;42.670;23.318;2023-09-19T05:25:08;94785.06;;;21.31;71.17
6150;BME280;3106;42.670;23.318;2023-09-19T05:27:35;94789.34;;;21.29;69.16
6150;BME280;3106;42.670;23.318;2023-09-19T05:30:04;94779.19;;;21.40;68.00
6150;BME280;3106;42.670;23.318;2023-09-19T05:32:32;94781.53;;;21.81;66.29
6150;BME280;3106;42.670;23.318;2023-09-19T05:34:59;94769.09;;;21.80;65.33
6150;BME280;3106;42.670;23.318;2023-09-19T05:37:26;94767.88;;;21.85;64.37
6150;BME280;3106;42.670;23.318;2023-09-19T05:39:53;94778.66;;;21.95;63.75
6150;BME280;3106;42.670;23.318;2023-09-19T05:42:20;94751.59;;;21.81;63.25
6150;BME280;3106;42.670;23.318;2023-09-19T05:44:47;94771.94;;;22.07;63.79
6150;BME280;3106;42.670;23.318;2023-09-19T05:47:15;94768.06;;;22.04;63.30
6150;BME280;3106;42.670;23.318;2023-09-19T05:49:43;94758.38;;;21.63;65.11
6150;BME280;3106;42.670;23.318;2023-09-19T05:52:10;94769.78;;;21.44;66.29
6150;BME280;3106;42.670;23.318;2023-09-19T05:54:37;94754.16;;;21.08;67.46
6150;BME280;3106;42.670;23.318;2023-09-19T05:57:04;94763.63;;;20.89;68.67
6150;BME280;3106;42.670;23.318;2023-09-19T05:59:31;94770.69;;;20.69;69.59
6150;BME280;3106;42.670;23.318;2023-09-19T06:01:58;94760.66;;;20.59;70.50
6150;BME280;3106;42.670;23.318;2023-09-19T06:04:27;94760.59;;;20.70;70.62
6150;BME280;3106;42.670;23.318;2023-09-19T06:06:56;94757.56;;;20.57;71.44
6150;BME280;3106;42.670;23.318;2023-09-19T06:09:23;94760.78;;;20.35;72.34
6150;BME280;3106;42.670;23.318;2023-09-19T06:11:53;94756.16;;;20.32;72.15
6150;BME280;3106;42.670;23.318;2023-09-19T06:14:20;94745.94;;;20.50;71.55
6150;BME280;3106;42.670;23.318;2023-09-19T06:16:50;94745.81;;;20.74;70.91
6150;BME280;3106;42.670;23.318;2023-09-19T06:19:19;94752.03;;;20.78;69.69
6150;BME280;3106;42.670;23.318;2023-09-19T06:21:49;94746.69;;;20.57;70.23
6150;BME280;3106;42.670;23.318;2023-09-19T06:24:16;94752.88;;;20.65;70.81
6150;BME280;3106;42.670;23.318;2023-09-19T06:26:45;94747.81;;;20.63;70.55
6150;BME280;3106;42.670;23.318;2023-09-19T06:29:13;94735.41;;;20.66;69.97
6150;BME280;3106;42.670;23.318;2023-09-19T06:31:40;94741.50;;;20.84;69.46
6150;BME280;3106;42.670;23.318;2023-09-19T06:34:07;94737.16;;;20.97;67.97
6150;BME280;3106;42.670;23.318;2023-09-19T06:36:34;94743.22;;;21.15;67.70
6150;BME280;3106;42.670;23.318;2023-09-19T06:39:02;94750.75;;;21.44;66.81
6150;BME280;3106;42.670;23.318;2023-09-19T06:41:31;94719.78;;;21.31;65.47
6150;BME280;3106;42.670;23.318;2023-09-19T06:43:58;94742.00;;;21.70;64.99
6150;BME280;3106;42.670;23.318;2023-09-19T06:46:25;94748.06;;;21.41;65.92
6150;BME280;3106;42.670;23.318;2023-09-19T06:48:58;94749.47;;;21.12;67.94
6150;BME280;3106;42.670;23.318;2023-09-19T06:51:25;94755.47;;;20.86;69.28
6150;BME280;3106;42.670;23.318;2023-09-19T06:53:52;94748.09;;;20.86;70.35
6150;BME280;3106;42.670;23.318;2023-09-19T06:56:21;94743.97;;;20.61;70.25
6150;BME280;3106;42.670;23.318;2023-09-19T06:58:50;94739.81;;;20.35;71.66
6150;BME280;3106;42.670;23.318;2023-09-19T07:01:17;94758.84;;;20.32;72.44
6150;BME280;3106;42.670;23.318;2023-09-19T07:03:43;94762.38;;;20.25;72.83
6150;BME280;3106;42.670;23.318;2023-09-19T07:06:11;94764.22;;;20.46;72.21
6150;BME280;3106;42.670;23.318;2023-09-19T07:08:38;94765.44;;;20.34;72.68
6150;BME280;3106;42.670;23.318;2023-09-19T07:11:05;94761.13;;;20.44;73.09
6150;BME280;3106;42.670;23.318;2023-09-19T07:13:34;94764.44;;;20.83;72.17
6150;BME280;3106;42.670;23.318;2023-09-19T07:16:01;94759.13;;;21.20;69.22
6150;BME280;3106;42.670;23.318;2023-09-19T07:18:28;94756.78;;;21.22;68.10
6150;BME280;3106;42.670;23.318;2023-09-19T07:20:57;94761.91;;;21.13;67.85
6150;BME280;3106;42.670;23.318;2023-09-19T07:23:26;94765.03;;;21.08;67.76
6150;BME280;3106;42.670;23.318;2023-09-19T07:25:56;94755.34;;;21.03;67.72
6150;BME280;3106;42.670;23.318;2023-09-19T07:28:24;94762.81;;;20.92;67.73
6150;BME280;3106;42.670;23.318;2023-09-19T07:30:52;94768.34;;;20.75;68.75
6150;BME280;3106;42.670;23.318;2023-09-19T07:33:19;94751.63;;;20.76;69.00
6150;BME280;3106;42.670;23.318;2023-09-19T07:35:47;94767.47;;;20.95;69.08
6150;BME280;3106;42.670;23.318;2023-09-19T07:38:14;94758.94;;;20.93;68.25
6150;BME280;3106;42.670;23.318;2023-09-19T07:40:41;94769.50;;;20.74;69.70
6150;BME280;3106;42.670;23.318;2023-09-19T07:43:08;94751.72;;;20.59;69.42
6150;BME280;3106;42.670;23.318;2023-09-19T07:45:35;94764.75;;;20.95;68.79
6150;BME280;3106;42.670;23.318;2023-09-19T07:48:04;94756.47;;;21.13;68.13
6150;BME280;3106;42.670;23.318;2023-09-19T07:50:39;94763.38;;;21.24;67.58
6150;BME280;3106;42.670;23.318;2023-09-19T07:53:08;94762.84;;;21.40;66.75
6150;BME280;3106;42.670;23.318;2023-09-19T07:55:38;94778.13;;;21.23;67.24
6150;BME280;3106;42.670;23.318;2023-09-19T07:58:06;94767.09;;;20.93;68.02
6150;BME280;3106;42.670;23.318;2023-09-19T08:00:33;94762.91;;;20.75;69.49
6150;BME280;3106;42.670;23.318;2023-09-19T08:03:00;94766.75;;;20.84;68.84
6150;BME280;3106;42.670;23.318;2023-09-19T08:05:30;94774.75;;;21.05;68.62
6150;BME280;3106;42.670;23.318;2023-09-19T08:07:58;94761.78;;;21.27;67.01
6150;BME280;3106;42.670;23.318;2023-09-19T08:10:27;94726.59;;;21.49;65.91
6150;BME280;3106;42.670;23.318;2023-09-19T08:13:00;94744.97;;;21.82;64.70
6150;BME280;3106;42.670;23.318;2023-09-19T08:15:28;94756.88;;;21.95;64.31
6150;BME280;3106;42.670;23.318;2023-09-19T08:17:55;94742.91;;;21.93;63.85
6150;BME280;3106;42.670;23.318;2023-09-19T08:20:22;94745.03;;;22.12;63.24
6150;BME280;3106;42.670;23.318;2023-09-19T08:22:52;94744.88;;;22.23;62.73
6150;BME280;3106;42.670;23.318;2023-09-19T08:25:20;94732.78;;;22.27;62.25
6150;BME280;3106;42.670;23.318;2023-09-19T08:27:48;94731.41;;;22.46;61.60
6150;BME280;3106;42.670;23.318;2023-09-19T08:30:16;94738.03;;;22.75;60.89
6150;BME280;3106;42.670;23.318;2023-09-19T08:32:45;94737.84;;;22.59;60.43
6150;BME280;3106;42.670;23.318;2023-09-19T08:35:13;94757.13;;;22.75;60.31
6150;BME280;3106;42.670;23.318;2023-09-19T08:37:40;94749.69;;;22.75;60.54
6150;BME280;3106;42.670;23.318;2023-09-19T08:40:09;94749.63;;;22.82;60.05
6150;BME280;3106;42.670;23.318;2023-09-19T08:42:56;94760.84;;;23.14;59.50
6150;BME280;3106;42.670;23.318;2023-09-19T08:45:24;94741.66;;;23.21;58.45
6150;BME280;3106;42.670;23.318;2023-09-19T08:47:59;94747.09;;;23.67;57.16
6150;BME280;3106;42.670;23.318;2023-09-19T08:50:28;94749.50;;;23.65;57.28
6150;BME280;3106;42.670;23.318;2023-09-19T08:52:56;94737.16;;;23.34;57.41
6150;BME280;3106;42.670;23.318;2023-09-19T08:55:28;94739.47;;;23.35;57.45
6150;BME280;3106;42.670;23.318;2023-09-19T08:58:02;94736.38;;;23.33;57.94
6150;BME280;3106;42.670;23.318;2023-09-19T09:00:30;94743.00;;;23.32;58.34
6150;BME280;3106;42.670;23.318;2023-09-19T09:02:58;94735.56;;;23.36;58.08
6150;BME280;3106;42.670;23.318;2023-09-19T09:05:27;94730.03;;;23.40;58.12
6150;BME280;3106;42.670;23.318;2023-09-19T09:07:55;94739.63;;;23.48;57.84
6150;BME280;3106;42.670;23.318;2023-09-19T09:10:23;94730.72;;;23.44;57.82
6150;BME280;3106;42.670;23.318;2023-09-19T09:12:52;94740.47;;;23.68;56.96
6150;BME280;3106;42.670;23.318;2023-09-19T09:15:21;94738.28;;;23.82;56.76
6150;BME280;3106;42.670;23.318;2023-09-19T09:17:48;94734.38;;;24.03;55.92
6150;BME280;3106;42.670;23.318;2023-09-19T09:20:16;94732.78;;;24.25;55.66
6150;BME280;3106;42.670;23.318;2023-09-19T09:22:53;94728.72;;;24.33;54.69
6150;BME280;3106;42.670;23.318;2023-09-19T09:25:22;94721.22;;;24.56;54.01
6150;BME280;3106;42.670;23.318;2023-09-19T09:28:00;94719.88;;;24.64;53.79
6150;BME280;3106;42.670;23.318;2023-09-19T09:30:36;94724.63;;;24.41;54.32
6150;BME280;3106;42.670;23.318;2023-09-19T09:33:11;94721.41;;;24.46;54.38
6150;BME280;3106;42.670;23.318;2023-09-19T09:35:47;94693.88;;;24.37;53.75
6150;BME280;3106;42.670;23.318;2023-09-19T09:38:18;94709.13;;;24.73;53.43
6150;BME280;3106;42.670;23.318;2023-09-19T09:40:49;94705.91;;;24.59;53.79
6150;BME280;3106;42.670;23.318;2023-09-19T09:43:35;94696.56;;;24.91;52.74
6150;BME280;3106;42.670;23.318;2023-09-19T09:46:21;94700.38;;;25.13;52.02
6150;BME280;3106;42.670;23.318;2023-09-19T09:49:05;94696.72;;;25.52;51.23
6150;BME280;3106;42.670;23.318;2023-09-19T09:51:46;94689.22;;;25.84;50.11
6150;BME280;3106;42.670;23.318;2023-09-19T09:54:23;94685.50;;;26.19;49.25
6150;BME280;3106;42.670;23.318;2023-09-19T09:56:56;94682.31;;;26.21;48.23
6150;BME280;3106;42.670;23.318;2023-09-19T09:59:51;94687.72;;;26.24;48.90
6150;BME280;3106;42.670;23.318;2023-09-19T10:02:22;94688.72;;;26.30;48.82
6150;BME280;3106;42.670;23.318;2023-09-19T10:04:55;94687.97;;;26.29;48.97
6150;BME280;3106;42.670;23.318;2023-09-19T10:07:35;94686.09;;;26.39;48.57
6150;BME280;3106;42.670;23.318;2023-09-19T10:10:07;94689.16;;;26.41;48.53
6150;BME280;3106;42.670;23.318;2023-09-19T10:12:45;94675.34;;;26.32;47.65
6150;BME280;3106;42.670;23.318;2023-09-19T10:15:15;94683.94;;;25.61;49.40
6150;BME280;3106;42.670;23.318;2023-09-19T10:17:46;94658.13;;;25.14;50.19
6150;BME280;3106;42.670;23.318;2023-09-19T10:20:15;94681.50;;;25.35;50.23
6150;BME280;3106;42.670;23.318;2023-09-19T10:23:05;94676.72;;;25.23;50.70
6150;BME280;3106;42.670;23.318;2023-09-19T10:25:37;94680.66;;;25.22;50.93
6150;BME280;3106;42.670;23.318;2023-09-19T10:28:06;94672.84;;;25.20;50.87
6150;BME280;3106;42.670;23.318;2023-09-19T10:30:38;94668.03;;;25.08;51.29
6150;BME280;3106;42.670;23.318;2023-09-19T10:33:10;94662.06;;;25.13;50.81
6150;BME280;3106;42.670;23.318;2023-09-19T10:35:38;94665.44;;;25.21;50.63
6150;BME280;3106;42.670;23.318;2023-09-19T10:38:07;94659.66;;;25.15;50.74
6150;BME280;3106;42.670;23.318;2023-09-19T10:40:37;94658.63;;;25.09;50.93
6150;BME280;3106;42.670;23.318;2023-09-19T10:43:11;94661.03;;;25.23;50.77
6150;BME280;3106;42.670;23.318;2023-09-19T10:45:41;94666.59;;;25.52;50.81
6150;BME280;3106;42.670;23.318;2023-09-19T10:48:10;94655.19;;;25.82;50.00
6150;BME280;3106;42.670;23.318;2023-09-19T10:50:43;94640.41;;;25.79;49.57
6150;BME280;3106;42.670;23.318;2023-09-19T10:53:12;94655.81;;;25.89;49.08
6150;BME280;3106;42.670;23.318;2023-09-19T10:55:41;94646.47;;;25.87;48.81
6150;BME280;3106;42.670;23.318;2023-09-19T10:58:25;94651.47;;;26.04;48.51
6150;BME280;3106;42.670;23.318;2023-09-19T11:00:56;94651.19;;;26.27;48.70
6150;BME280;3106;42.670;23.318;2023-09-19T11:03:28;94650.63;;;26.48;47.70
6150;BME280;3106;42.670;23.318;2023-09-19T11:06:10;94639.97;;;26.50;47.88
6150;BME280;3106;42.670;23.318;2023-09-19T11:08:59;94647.44;;;26.49;47.14
6150;BME280;3106;42.670;23.318;2023-09-19T11:11:48;94636.19;;;26.19;47.43
6150;BME280;3106;42.670;23.318;2023-09-19T11:14:30;94639.22;;;26.09;47.60
6150;BME280;3106;42.670;23.318;2023-09-19T11:17:32;94642.41;;;26.20;47.64
6150;BME280;3106;42.670;23.318;2023-09-19T11:20:22;94641.31;;;26.17;48.17
6150;BME280;3106;42.670;23.318;2023-09-19T11:23:23;94632.09;;;26.23;48.62
6150;BME280;3106;42.670;23.318;2023-09-19T11:25:51;94637.81;;;26.29;49.04
6150;BME280;3106;42.670;23.318;2023-09-19T11:28:35;94633.63;;;26.24;47.92
6150;BME280;3106;42.670;23.318;2023-09-19T11:34:44;94627.25;;;26.56;47.80
6150;BME280;3106;42.670;23.318;2023-09-19T11:40:33;94621.31;;;26.82;46.76
6150;BME280;3106;42.670;23.318;2023-09-19T11:43:30;94613.00;;;26.61;46.90
6150;BME280;3106;42.670;23.318;2023-09-19T11:46:08;94598.91;;;26.96;46.90
6150;BME280;3106;42.670;23.318;2023-09-19T11:48:38;94589.69;;;27.03;45.92
6150;BME280;3106;42.670;23.318;2023-09-19T11:51:16;94589.50;;;26.85;46.44
6150;BME280;3106;42.670;23.318;2023-09-19T11:53:49;94585.97;;;26.97;46.08
6150;BME280;3106;42.670;23.318;2023-09-19T11:56:20;94590.66;;;26.96;46.26
6150;BME280;3106;42.670;23.318;2023-09-19T11:58:50;94593.75;;;27.11;45.97
6150;BME280;3106;42.670;23.318;2023-09-19T12:01:22;94591.50;;;27.31;45.61
6150;BME280;3106;42.670;23.318;2023-09-19T12:03:53;94583.06;;;27.25;44.94
6150;BME280;3106;42.670;23.318;2023-09-19T12:06:20;94588.44;;;27.29;44.67
6150;BME280;3106;42.670;23.318;2023-09-19T12:08:48;94584.47;;;27.30;44.93
6150;BME280;3106;42.670;23.318;2023-09-19T12:11:17;94559.44;;;27.28;45.23
6150;BME280;3106;42.670;23.318;2023-09-19T12:13:46;94576.53;;;27.44;44.87
6150;BME280;3106;42.670;23.318;2023-09-19T12:16:15;94568.03;;;27.51;44.68
6150;BME280;3106;42.670;23.318;2023-09-19T12:18:43;94567.88;;;27.33;45.07
6150;BME280;3106;42.670;23.318;2023-09-19T12:21:28;94540.06;;;26.97;45.47
6150;BME280;3106;42.670;23.318;2023-09-19T12:24:09;94559.91;;;27.14;45.90
6150;BME280;3106;42.670;23.318;2023-09-19T12:26:43;94552.69;;;26.95;46.71
6150;BME280;3106;42.670;23.318;2023-09-19T12:29:15;94549.50;;;26.96;46.68
6150;BME280;3106;42.670;23.318;2023-09-19T12:31:52;94546.41;;;27.07;46.25
6150;BME280;3106;42.670;23.318;2023-09-19T12:34:24;94544.97;;;27.15;45.89
6150;BME280;3106;42.670;23.318;2023-09-19T12:37:06;94530.25;;;27.21;45.98
6150;BME280;3106;42.670;23.318;2023-09-19T12:39:41;94542.44;;;27.08;45.77
6150;BME280;3106;42.670;23.318;2023-09-19T12:42:10;94542.91;;;27.06;46.15
6150;BME280;3106;42.670;23.318;2023-09-19T12:44:43;94541.94;;;27.00;46.67
6150;BME280;3106;42.670;23.318;2023-09-19T12:47:11;94528.31;;;27.09;46.82
6150;BME280;3106;42.670;23.318;2023-09-19T12:50:09;94541.19;;;27.34;46.21
6150;BME280;3106;42.670;23.318;2023-09-19T12:52:45;94542.78;;;27.44;45.58
6150;BME280;3106;42.670;23.318;2023-09-19T12:55:22;94542.16;;;27.40;44.98
6150;BME280;3106;42.670;23.318;2023-09-19T13:01:00;94527.06;;;27.23;46.00
6150;BME280;3106;42.670;23.318;2023-09-19T13:03:28;94530.72;;;27.20;46.02
6150;BME280;3106;42.670;23.318;2023-09-19T13:05:57;94509.19;;;27.06;45.84
6150;BME280;3106;42.670;23.318;2023-09-19T13:08:27;94517.13;;;26.91;47.02
6150;BME280;3106;42.670;23.318;2023-09-19T13:11:03;94513.28;;;27.01;46.40
6150;BME280;3106;42.670;23.318;2023-09-19T13:13:32;94516.34;;;27.03;46.92
6150;BME280;3106;42.670;23.318;2023-09-19T13:16:03;94523.47;;;27.01;46.92
6150;BME280;3106;42.670;23.318;2023-09-19T13:18:42;94514.50;;;27.00;47.23
6150;BME280;3106;42.670;23.318;2023-09-19T13:21:11;94519.72;;;27.20;46.31
6150;BME280;3106;42.670;23.318;2023-09-19T13:23:41;94510.72;;;27.07;46.95
6150;BME280;3106;42.670;23.318;2023-09-19T13:26:09;94504.91;;;27.17;46.57
6150;BME280;3106;42.670;23.318;2023-09-19T13:28:38;94491.56;;;27.28;46.93
6150;BME280;3106;42.670;23.318;2023-09-19T13:31:06;94462.97;;;27.17;46.36
6150;BME280;3106;42.670;23.318;2023-09-19T13:33:42;94486.78;;;27.20;46.93
6150;BME280;3106;42.670;23.318;2023-09-19T13:36:10;94491.69;;;27.25;46.74
6150;BME280;3106;42.670;23.318;2023-09-19T13:38:39;94485.00;;;27.26;46.88